Time;durP1;ratioP1;P1;durP2;ratioP2;P2;SDS_P1;SDS_P2;PMS_P1;PMS_P2;Temp;Humidity;BMP_temperature;BMP_pressure;BME280_temperature;BME280_humidity;BME280_pressure;Samples;Min_cycle;Max_cycle;Signal;HPM_P1;HPM_P2
2022/11/09 00:00:07;;;;;;;38.23;21.53;;;11.50;99.90;;;11.52;70.34;95542.28;5005738;28;21035;-56
2022/11/09 00:02:35;;;;;;;30.47;18.10;;;11.50;99.90;;;11.54;70.34;95539.53;5005857;28;20457;-57
2022/11/09 00:05:02;;;;;;;36.60;20.20;;;11.50;99.90;;;11.55;70.21;95541.22;5005158;28;20478;-56
2022/11/09 00:07:31;;;;;;;33.77;19.13;;;11.50;99.90;;;11.57;70.44;95542.78;4997089;28;20457;-54
2022/11/09 00:09:58;;;;;;;29.23;19.27;;;11.50;99.90;;;11.60;70.08;95547.78;4996546;28;20473;-57
2022/11/09 00:12:25;;;;;;;31.83;18.83;;;11.60;99.90;;;11.62;70.14;95545.00;5004776;28;20458;-55
2022/11/09 00:14:53;;;;;;;39.33;18.90;;;11.60;99.90;;;11.62;70.27;95548.47;5005274;28;20880;-56
2022/11/09 00:17:21;;;;;;;38.87;19.53;;;11.60;99.90;;;11.62;70.07;95548.47;5005754;28;20472;-56
2022/11/09 00:19:50;;;;;;;31.57;19.00;;;11.60;99.90;;;11.64;69.67;95548.34;5005620;28;20476;-57
2022/11/09 00:22:17;;;;;;;29.90;19.57;;;11.60;99.90;;;11.62;69.84;95547.66;5005585;28;20953;-56
2022/11/09 00:24:44;;;;;;;37.13;21.57;;;11.60;99.90;;;11.65;69.65;95553.47;5005705;28;20469;-56
2022/11/09 00:27:11;;;;;;;28.07;19.10;;;11.60;99.90;;;11.65;69.62;95555.28;5005475;28;20850;-56
2022/11/09 00:29:39;;;;;;;30.00;18.40;;;11.60;99.90;;;11.65;69.90;95548.22;5005579;28;20466;-56
2022/11/09 00:32:06;;;;;;;25.23;17.10;;;11.60;99.90;;;11.65;69.67;95547.38;5005421;28;20493;-57
2022/11/09 00:34:34;;;;;;;32.73;18.03;;;11.60;99.90;;;11.64;69.44;95549.16;5005402;28;20484;-57
2022/11/09 00:37:02;;;;;;;24.67;16.33;;;11.60;99.90;;;11.64;69.35;95551.81;5004794;28;20458;-57
2022/11/09 00:39:29;;;;;;;23.17;16.53;;;11.60;99.90;;;11.65;69.54;95552.66;5001444;28;21036;-58
2022/11/09 00:41:57;;;;;;;27.30;16.47;;;11.60;99.90;;;11.65;69.32;95542.13;5004909;28;20497;-57
2022/11/09 00:44:24;;;;;;;23.83;15.80;;;11.60;99.90;;;11.66;69.13;95543.78;5005228;28;20489;-56
2022/11/09 00:46:51;;;;;;;28.00;17.37;;;11.60;99.90;;;11.66;69.06;95541.13;5005299;28;20511;-55
2022/11/09 00:49:18;;;;;;;24.77;16.70;;;11.60;99.90;;;11.66;68.88;95541.13;5005509;28;20477;-56
2022/11/09 00:51:46;;;;;;;25.23;15.37;;;11.60;99.90;;;11.66;69.13;95543.78;5003510;28;20493;-54
2022/11/09 00:54:16;;;;;;;31.87;16.60;;;11.60;99.90;;;11.64;68.95;95549.16;5004744;28;20596;-56
2022/11/09 00:56:43;;;;;;;25.10;16.87;;;11.60;99.90;;;11.64;69.20;95546.53;5003555;28;20481;-55
2022/11/09 00:59:11;;;;;;;28.90;15.83;;;11.60;99.90;;;11.63;69.12;95549.31;5005301;28;20543;-55
2022/11/09 01:01:38;;;;;;;25.63;17.00;;;11.60;99.90;;;11.63;69.35;95546.66;5004910;28;20548;-56
2022/11/09 01:04:05;;;;;;;28.70;16.67;;;11.60;99.90;;;11.63;69.19;95544.03;5001409;28;20481;-56
2022/11/09 01:06:32;;;;;;;22.67;16.77;;;11.60;99.90;;;11.63;69.22;95544.88;4998478;28;20450;-56
2022/11/09 01:09:00;;;;;;;29.80;17.93;;;11.60;99.90;;;11.63;69.24;95546.66;5006640;28;20535;-57
2022/11/09 01:11:28;;;;;;;27.57;16.50;;;11.60;99.90;;;11.63;69.44;95541.41;5008313;28;20859;-56
2022/11/09 01:13:56;;;;;;;26.37;16.03;;;11.60;99.90;;;11.63;69.49;95544.88;5008331;28;20473;-56
2022/11/09 01:16:23;;;;;;;24.40;15.57;;;11.60;99.90;;;11.63;69.34;95544.88;5008324;28;20481;-54
2022/11/09 01:18:53;;;;;;;26.87;16.27;;;11.60;99.90;;;11.63;69.37;95544.03;5008846;28;20457;-55
2022/11/09 01:21:21;;;;;;;24.97;16.60;;;11.60;99.90;;;11.65;69.57;95539.50;5001931;28;20715;-55
2022/11/09 01:23:48;;;;;;;39.03;18.30;;;11.60;99.90;;;11.65;69.46;95539.50;5008672;28;20824;-57
2022/11/09 01:26:15;;;;;;;29.40;17.50;;;11.60;99.90;;;11.66;69.40;95539.34;5009074;28;20453;-55
2022/11/09 01:28:44;;;;;;;25.27;16.67;;;11.60;99.90;;;11.66;69.41;95535.88;5008311;28;20446;-56
2022/11/09 01:31:12;;;;;;;27.70;16.77;;;11.60;99.90;;;11.68;69.63;95533.09;5008379;28;20543;-54
2022/11/09 01:33:40;;;;;;;35.30;17.20;;;11.60;99.90;;;11.66;69.69;95531.44;5007961;28;20449;-56
2022/11/09 01:36:09;;;;;;;32.30;19.80;;;11.60;99.90;;;11.69;69.73;95530.34;5007995;28;20457;-56
2022/11/09 01:38:36;;;;;;;24.50;16.83;;;11.60;99.90;;;11.68;69.66;95533.97;5008377;28;20830;-57
2022/11/09 01:41:04;;;;;;;28.10;17.67;;;11.60;99.90;;;11.69;69.59;95534.78;5007992;28;20716;-55
2022/11/09 01:43:31;;;;;;;28.20;17.37;;;11.60;99.90;;;11.69;69.66;95525.06;5007871;28;20501;-58
2022/11/09 01:46:03;;;;;;;26.33;17.10;;;11.60;99.90;;;11.70;69.95;95526.75;5004508;28;20515;-57
2022/11/09 01:48:36;;;;;;;28.63;17.17;;;11.60;99.90;;;11.70;69.99;95524.09;5007689;28;20771;-56
2022/11/09 01:51:07;;;;;;;27.67;17.20;;;11.60;99.90;;;11.71;69.80;95527.56;5007874;28;20596;-54
2022/11/09 01:53:36;;;;;;;30.53;16.60;;;11.70;99.90;;;11.71;69.79;95520.53;5006467;28;20531;-55
2022/11/09 01:56:07;;;;;;;34.63;17.47;;;11.70;99.90;;;11.73;69.64;95517.75;5007715;28;20472;-57
2022/11/09 01:58:39;;;;;;;36.10;16.53;;;11.70;99.90;;;11.72;70.34;95522.16;5000854;28;20454;-58
2022/11/09 02:01:10;;;;;;;31.13;17.63;;;11.70;99.90;;;11.73;69.98;95523.84;5008309;28;20449;-57
2022/11/09 02:03:40;;;;;;;27.97;18.03;;;11.70;99.90;;;11.73;70.03;95523.03;5008029;28;20438;-57
2022/11/09 02:06:08;;;;;;;29.40;17.37;;;11.70;99.90;;;11.71;70.05;95531.06;5003373;28;21081;-58
2022/11/09 02:08:36;;;;;;;29.23;17.90;;;11.70;99.90;;;11.70;70.10;95529.38;5004338;28;20449;-56
2022/11/09 02:11:07;;;;;;;26.20;16.03;;;11.70;99.90;;;11.70;70.41;95532.00;5006194;28;20497;-57
2022/11/09 02:13:35;;;;;;;32.17;17.20;;;11.60;99.90;;;11.71;70.48;95540.75;5005798;28;20442;-57
2022/11/09 02:16:02;;;;;;;28.33;17.10;;;11.60;99.90;;;11.71;70.17;95531.06;5003625;28;20442;-56
2022/11/09 02:18:31;;;;;;;26.63;16.00;;;11.60;99.90;;;11.72;70.06;95535.34;5003291;28;20461;-53
2022/11/09 02:20:59;;;;;;;28.93;16.83;;;11.70;99.90;;;11.73;69.77;95537.03;4998332;28;20457;-56
2022/11/09 02:23:27;;;;;;;29.10;17.17;;;11.70;99.90;;;11.74;70.11;95535.22;5000305;28;20531;-55
2022/11/09 02:25:56;;;;;;;31.77;18.57;;;11.70;99.90;;;11.72;69.94;95537.16;5000387;28;20868;-57
2022/11/09 02:28:23;;;;;;;23.50;16.23;;;11.60;99.90;;;11.72;69.94;95534.53;4997985;28;20921;-56
2022/11/09 02:30:52;;;;;;;24.70;16.77;;;11.70;99.90;;;11.70;70.08;95534.66;4997058;28;20524;-60
2022/11/09 02:33:19;;;;;;;28.83;17.00;;;11.60;99.90;;;11.69;69.92;95542.69;5004235;28;20461;-58
2022/11/09 02:35:46;;;;;;;29.97;17.07;;;11.60;99.90;;;11.65;70.17;95534.22;5000765;28;20473;-57
2022/11/09 02:38:15;;;;;;;24.03;16.83;;;11.60;99.90;;;11.62;69.96;95532.66;5003310;28;20975;-56
2022/11/09 02:40:44;;;;;;;26.97;16.20;;;11.60;99.90;;;11.59;70.06;95530.28;5000293;28;20475;-55
2022/11/09 02:43:11;;;;;;;26.43;15.67;;;11.60;99.90;;;11.59;70.16;95537.38;5007543;28;20481;-57
2022/11/09 02:45:38;;;;;;;26.40;16.63;;;11.60;99.90;;;11.55;69.72;95538.59;4997638;28;20859;-56
2022/11/09 02:48:06;;;;;;;34.87;16.33;;;11.50;99.90;;;11.53;69.97;95535.25;5003460;28;20476;-57
2022/11/09 02:50:35;;;;;;;26.07;16.70;;;11.50;99.90;;;11.50;70.11;95535.50;4999214;28;20481;-56
2022/11/09 02:53:03;;;;;;;29.27;17.03;;;11.50;99.90;;;11.48;70.16;95538.28;5004938;28;20465;-57
2022/11/09 02:55:32;;;;;;;26.87;16.63;;;11.40;99.90;;;11.46;70.02;95535.75;4999020;28;20506;-54
2022/11/09 02:57:59;;;;;;;31.47;16.50;;;11.40;99.90;;;11.44;70.06;95531.59;5003288;28;20457;-59
2022/11/09 03:00:26;;;;;;;25.27;17.00;;;11.40;99.90;;;11.41;70.08;95534.47;5000140;28;20474;-54
2022/11/09 03:02:54;;;;;;;27.70;17.47;;;11.40;99.90;;;11.40;70.04;95540.69;5002973;28;20516;-55
2022/11/09 03:05:21;;;;;;;26.53;16.03;;;11.40;99.90;;;11.38;70.34;95529.47;4998967;28;20527;-56
2022/11/09 03:07:48;;;;;;;27.00;17.43;;;11.30;99.90;;;11.35;70.19;95535.81;5001666;28;20461;-55
2022/11/09 03:10:16;;;;;;;26.73;16.37;;;11.30;99.90;;;11.33;70.18;95539.56;5003339;28;20474;-56
2022/11/09 03:12:45;;;;;;;24.50;16.50;;;11.30;99.90;;;11.32;70.04;95545.78;5002262;28;20504;-57
2022/11/09 03:15:12;;;;;;;32.83;17.53;;;11.30;99.90;;;11.28;70.25;95539.94;5002491;28;20567;-56
2022/11/09 03:17:39;;;;;;;29.40;17.60;;;11.30;99.90;;;11.25;70.03;95543.66;4998681;28;20458;-57
2022/11/09 03:20:08;;;;;;;28.50;17.87;;;11.20;99.90;;;11.22;70.37;95537.81;4996567;28;20978;-56
2022/11/09 03:22:36;;;;;;;26.83;17.73;;;11.20;99.90;;;11.20;70.51;95539.72;4999343;28;20974;-57
2022/11/09 03:25:03;;;;;;;27.20;17.37;;;11.20;99.90;;;11.19;70.39;95543.34;5002294;28;20477;-57
2022/11/09 03:27:30;;;;;;;34.97;16.83;;;11.20;99.90;;;11.17;70.30;95542.59;5000587;28;20464;-56
2022/11/09 03:29:59;;;;;;;31.53;18.83;;;11.10;99.90;;;11.13;70.23;95542.03;5000333;28;20481;-56
2022/11/09 03:32:27;;;;;;;30.97;18.13;;;11.10;99.90;;;11.12;70.21;95546.47;4998799;28;20502;-56
2022/11/09 03:34:54;;;;;;;30.90;18.17;;;11.10;99.90;;;11.10;70.13;95548.38;5002082;28;20477;-58
2022/11/09 03:37:21;;;;;;;26.70;16.53;;;11.10;99.90;;;11.10;70.14;95543.09;4999619;28;21005;-58
2022/11/09 03:39:48;;;;;;;29.77;18.33;;;11.10;99.90;;;11.08;70.38;95545.03;5000692;28;20473;-56
2022/11/09 03:42:15;;;;;;;26.13;17.00;;;11.00;99.90;;;11.07;70.15;95545.16;4998682;28;20455;-54
2022/11/09 03:44:43;;;;;;;27.17;18.83;;;11.00;99.90;;;11.07;70.24;95553.06;5002144;28;20473;-55
2022/11/09 03:47:11;;;;;;;33.00;18.10;;;11.00;99.90;;;11.05;70.13;95555.81;4999366;28;21009;-56
2022/11/09 03:49:39;;;;;;;27.70;19.13;;;11.00;99.90;;;11.03;70.16;95556.91;5001088;28;20469;-57
2022/11/09 03:52:06;;;;;;;35.37;19.17;;;11.00;99.90;;;11.02;70.12;95555.25;5000554;28;20543;-56
2022/11/09 03:54:33;;;;;;;27.97;18.47;;;11.00;99.90;;;10.99;70.10;95553.69;5005237;28;20461;-56
2022/11/09 03:57:00;;;;;;;30.33;19.33;;;11.00;99.90;;;10.97;70.09;95547.72;5006262;28;20504;-58
2022/11/09 03:59:28;;;;;;;33.53;19.00;;;10.90;99.90;;;10.96;70.13;95548.69;5005662;28;20589;-56
2022/11/09 04:01:55;;;;;;;29.57;19.10;;;11.00;99.90;;;10.93;69.97;95557.66;5005517;28;20484;-56
2022/11/09 04:04:24;;;;;;;30.20;18.53;;;10.90;99.90;;;10.90;69.93;95557.91;5005177;28;20568;-53
2022/11/09 04:06:51;;;;;;;30.20;18.97;;;10.90;99.90;;;10.89;69.94;95555.38;4998191;28;20481;-57
2022/11/09 04:09:18;;;;;;;28.07;18.70;;;10.80;99.90;;;10.84;70.21;95549.69;5005448;28;20500;-58
2022/11/09 04:11:45;;;;;;;34.23;19.50;;;10.80;99.90;;;10.82;70.07;95559.50;5005953;28;20874;-57
2022/11/09 04:14:12;;;;;;;31.47;19.53;;;10.80;99.90;;;10.77;70.04;95551.97;5005249;28;21016;-57
2022/11/09 04:16:40;;;;;;;34.37;20.30;;;10.80;99.90;;;10.73;70.34;95556.63;5005515;28;20794;-57
2022/11/09 04:19:08;;;;;;;34.57;20.80;;;10.70;99.90;;;10.71;70.24;95557.72;5005255;28;20547;-58
2022/11/09 04:21:36;;;;;;;31.27;19.43;;;10.70;99.90;;;10.68;70.15;95560.63;5005522;28;20449;-58
2022/11/09 04:24:04;;;;;;;31.80;19.50;;;10.60;99.90;;;10.63;70.41;95555.72;5005806;28;20484;-57
2022/11/09 04:26:31;;;;;;;35.77;19.90;;;10.60;99.90;;;10.61;70.30;95557.63;5002265;28;21031;-55
2022/11/09 04:28:59;;;;;;;47.13;20.40;;;10.60;99.90;;;10.57;70.53;95551.78;5005467;28;20473;-56
2022/11/09 04:31:26;;;;;;;40.40;22.10;;;10.60;99.90;;;10.54;70.33;95553.81;5005350;28;20492;-56
2022/11/09 04:33:53;;;;;;;52.90;22.47;;;10.60;99.90;;;10.51;69.98;95561.97;5005149;28;20477;-58
2022/11/09 04:36:21;;;;;;;36.20;21.50;;;10.50;99.90;;;10.45;70.17;95555.38;5005098;28;21078;-56
2022/11/09 04:38:49;;;;;;;32.20;19.43;;;10.50;99.90;;;10.43;70.12;95551.22;5005667;28;20453;-53
2022/11/09 04:41:17;;;;;;;39.33;21.50;;;10.40;99.90;;;10.39;70.24;95559.34;5005268;28;20446;-56
2022/11/09 04:43:44;;;;;;;46.03;23.10;;;10.40;99.90;;;10.36;70.31;95551.72;5008513;28;20973;-56
2022/11/09 04:46:11;;;;;;;41.83;22.20;;;10.30;99.90;;;10.32;70.40;95557.31;5005561;28;21035;-54
2022/11/09 04:48:39;;;;;;;37.70;20.57;;;10.30;99.90;;;10.27;70.32;95549.78;5005241;28;20482;-55
2022/11/09 04:51:09;;;;;;;36.07;21.37;;;10.30;99.90;;;10.26;70.48;95558.63;5008233;28;20453;-55
2022/11/09 04:53:36;;;;;;;43.90;23.37;;;10.20;99.90;;;10.22;70.50;95559.78;5007348;28;20446;-56
2022/11/09 04:56:06;;;;;;;44.67;22.43;;;10.20;99.90;;;10.21;70.40;95564.22;5008866;28;20457;-57
2022/11/09 04:58:33;;;;;;;36.40;21.70;;;10.20;99.90;;;10.19;70.44;95567.94;5008254;28;20874;-54
2022/11/09 05:01:03;;;;;;;42.30;21.90;;;10.20;99.90;;;10.17;70.42;95568.03;5008430;28;20445;-56
2022/11/09 05:03:34;;;;;;;39.57;22.77;;;10.20;99.90;;;10.16;70.46;95568.16;5007835;28;20532;-58
2022/11/09 05:06:30;;;;;;;37.07;23.03;;;10.20;99.90;;;10.16;70.41;95562.91;5005202;28;20455;-55
2022/11/09 05:08:48;;;;;;;40.67;21.87;;;10.20;99.90;;;10.15;70.36;95562.09;5001039;28;20462;-53
2022/11/09 05:11:18;;;;;;;40.93;23.53;;;10.10;99.90;;;10.16;70.64;95565.53;5003085;28;20457;-58
2022/11/09 05:13:45;;;;;;;45.73;24.60;;;10.10;99.90;;;10.15;70.33;95567.34;4999139;28;20946;-55
2022/11/09 05:16:13;;;;;;;39.23;22.13;;;10.20;99.90;;;10.15;70.47;95566.50;5002857;28;20468;-55
2022/11/09 05:18:40;;;;;;;49.73;23.23;;;10.10;99.90;;;10.17;70.46;95575.09;5003348;28;21358;-55
2022/11/09 05:21:08;;;;;;;49.13;24.07;;;10.20;99.90;;;10.17;70.68;95575.09;5004641;28;20453;-55
2022/11/09 05:26:21;;;;;;;56.70;23.73;;;10.20;99.90;;;10.22;70.68;95580.84;4999752;28;20464;-57
2022/11/09 05:28:49;;;;;;;43.60;22.10;;;10.20;99.90;;;10.23;70.44;95582.50;5001091;28;20453;-56
2022/11/09 05:31:16;;;;;;;38.70;23.70;;;10.20;99.90;;;10.27;70.91;95585.72;4999476;28;20465;-53
2022/11/09 05:33:43;;;;;;;48.07;24.00;;;10.20;99.90;;;10.30;70.59;95591.59;4999298;28;20585;-55
2022/11/09 05:36:11;;;;;;;49.83;24.40;;;10.30;99.90;;;10.32;70.80;95589.69;4994859;28;20942;-53
2022/11/09 05:38:38;;;;;;;49.10;24.80;;;10.30;99.90;;;10.39;70.64;95595.31;5001367;28;20454;-52
2022/11/09 05:41:05;;;;;;;44.83;24.70;;;10.40;99.90;;;10.45;70.56;95596.63;5001872;28;20457;-56
2022/11/09 05:43:35;;;;;;;41.40;24.47;;;10.40;99.90;;;10.49;70.73;95592.81;5005164;28;20457;-57
2022/11/09 05:46:02;;;;;;;48.47;23.60;;;10.40;99.90;;;10.56;70.71;95593.97;4999370;28;20472;-56
2022/11/09 05:48:29;;;;;;;41.83;24.00;;;10.50;99.90;;;10.66;70.68;95596.72;5005231;28;20457;-55
2022/11/09 05:51:00;;;;;;;42.10;22.60;;;10.60;99.90;;;10.79;70.24;95592.16;4991715;28;20553;-55
2022/11/09 05:53:28;;;;;;;47.07;23.67;;;10.70;99.90;;;10.91;70.28;95595.59;5002238;28;20504;-56
2022/11/09 05:55:55;;;;;;;49.53;24.80;;;10.80;99.90;;;11.07;69.96;95603.91;5006844;28;20961;-57
2022/11/09 05:58:23;;;;;;;67.70;24.27;;;11.00;99.90;;;11.22;69.68;95604.47;5007527;28;21024;-57
2022/11/09 06:00:51;;;;;;;55.00;24.93;;;11.10;99.90;;;11.38;69.59;95609.31;5003116;28;21021;-57
2022/11/09 06:03:19;;;;;;;54.93;25.33;;;11.30;99.90;;;11.53;69.01;95606.38;5003231;28;20470;-57
2022/11/09 06:05:46;;;;;;;43.10;26.17;;;11.40;99.90;;;11.62;68.95;95610.88;5005900;28;20485;-56
2022/11/09 06:08:14;;;;;;;47.30;24.47;;;11.50;99.90;;;11.70;68.82;95616.34;5003342;28;20469;-56
2022/11/09 06:10:42;;;;;;;41.97;24.50;;;11.60;99.90;;;11.81;68.77;95613.63;5006449;28;20489;-55
2022/11/09 06:13:10;;;;;;;39.53;24.17;;;11.70;99.90;;;11.89;68.25;95617.44;5005390;28;20523;-57
2022/11/09 06:15:37;;;;;;;65.60;26.13;;;11.80;99.90;;;11.93;68.37;95618.84;5004983;28;20489;-55
2022/11/09 06:18:06;;;;;;;48.30;22.37;;;11.90;99.90;;;11.95;67.83;95617.78;5004665;28;20453;-55
2022/11/09 06:20:33;;;;;;;48.60;23.40;;;11.90;99.90;;;11.96;68.04;95623.88;5001674;28;20987;-57
2022/11/09 06:23:01;;;;;;;49.23;25.50;;;11.90;99.90;;;11.98;68.15;95616.69;5006360;28;20461;-57
2022/11/09 06:25:30;;;;;;;44.50;23.87;;;11.90;99.90;;;11.98;67.68;95621.97;5007602;28;20470;-57
2022/11/09 06:27:57;;;;;;;56.40;25.70;;;11.90;99.90;;;11.95;67.94;95623.03;5003986;28;20449;-56
2022/11/09 06:30:25;;;;;;;54.03;24.80;;;11.90;99.90;;;11.93;68.05;95621.50;5006469;28;20476;-58
2022/11/09 06:32:52;;;;;;;41.03;23.77;;;11.90;99.90;;;11.93;68.12;95618.84;5006326;28;20846;-56
2022/11/09 06:35:21;;;;;;;49.13;25.27;;;11.90;99.90;;;11.92;68.36;95618.03;5006161;28;20478;-56
2022/11/09 06:37:48;;;;;;;48.03;23.77;;;11.90;99.90;;;11.94;69.96;95617.91;5006636;28;20453;-54
2022/11/09 06:40:16;;;;;;;46.13;23.90;;;11.90;99.90;;;12.03;69.65;95625.03;5007018;28;20484;-57
2022/11/09 06:42:43;;;;;;;41.10;24.70;;;12.00;99.90;;;12.13;70.42;95627.72;5006961;28;20454;-58
2022/11/09 06:45:11;;;;;;;46.83;25.67;;;12.00;99.90;;;12.31;69.85;95628.78;5006997;28;21021;-57
2022/11/09 06:47:38;;;;;;;37.90;24.13;;;12.20;99.90;;;12.57;69.35;95627.53;5006581;28;20541;-57
2022/11/09 06:50:11;;;;;;;40.80;25.37;;;12.40;99.90;;;12.85;68.29;95625.94;5006585;28;20473;-55
2022/11/09 06:52:40;;;;;;;47.70;25.20;;;12.70;99.90;;;13.12;67.93;95627.94;4999741;28;20493;-56
2022/11/09 06:55:09;;;;;;;46.20;24.67;;;13.00;99.90;;;13.40;67.26;95630.75;5006987;28;20849;-56
2022/11/09 06:57:36;;;;;;;59.50;26.13;;;13.20;99.90;;;13.68;66.41;95623.81;5006279;28;21065;-56
2022/11/09 07:00:06;;;;;;;46.10;25.50;;;13.50;99.90;;;13.93;65.89;95626.84;5002734;28;20473;-58
2022/11/09 07:02:33;;;;;;;42.53;26.00;;;13.80;99.90;;;14.15;65.43;95623.03;5003080;28;21040;-57
2022/11/09 07:05:00;;;;;;;59.43;26.20;;;13.90;99.90;;;14.35;65.10;95619.34;5003839;28;20474;-56
2022/11/09 07:07:28;;;;;;;47.87;26.17;;;14.20;99.90;;;14.59;64.46;95622.47;4998960;28;20462;-57
2022/11/09 07:09:57;;;;;;;48.40;24.70;;;14.40;99.90;;;14.81;63.82;95626.56;5003818;28;20853;-55
2022/11/09 07:12:24;;;;;;;46.90;25.07;;;14.60;99.90;;;15.13;63.73;95620.81;5001841;28;20530;-58
2022/11/09 07:14:51;;;;;;;53.33;26.23;;;15.00;99.90;;;15.53;63.01;95616.91;5004885;28;20481;-56
2022/11/09 07:17:19;;;;;;;43.77;25.87;;;15.30;99.70;;;15.94;62.30;95616.44;5001388;28;20450;-58
2022/11/09 07:19:47;;;;;;;38.83;25.63;;;15.70;99.50;;;16.33;61.73;95623.16;5002278;28;20480;-57
2022/11/09 07:22:15;;;;;;;40.23;24.37;;;16.10;98.90;;;16.88;60.58;95614.00;5001316;28;20499;-56
2022/11/09 07:24:42;;;;;;;44.23;23.43;;;16.60;98.50;;;17.53;59.18;95616.81;5001529;28;20485;-57
2022/11/09 07:27:11;;;;;;;45.70;24.73;;;17.20;97.70;;;18.06;58.53;95616.53;5001943;28;20893;-58
2022/11/09 07:29:38;;;;;;;44.00;25.83;;;17.70;96.80;;;18.48;57.15;95626.09;5002186;28;20466;-56
2022/11/09 07:32:05;;;;;;;35.43;23.67;;;18.20;95.70;;;18.99;56.13;95615.97;5000914;28;20509;-56
2022/11/09 07:34:33;;;;;;;44.93;24.53;;;18.60;94.60;;;19.41;55.03;95619.25;5005435;28;20477;-57
2022/11/09 07:37:00;;;;;;;34.93;23.70;;;19.00;94.10;;;19.75;53.74;95614.50;5002435;28;20457;-55
2022/11/09 07:39:27;;;;;;;39.83;24.00;;;19.40;92.60;;;19.95;52.04;95615.72;5001928;28;20501;-55
2022/11/09 07:41:55;;;;;;;38.70;24.10;;;19.70;90.70;;;20.03;52.00;95614.81;4998666;28;20447;-56
2022/11/09 07:44:23;;;;;;;40.80;25.77;;;19.80;90.40;;;20.06;50.06;95609.09;5005760;28;20551;-59
2022/11/09 07:46:51;;;;;;;38.70;24.83;;;19.90;86.10;;;20.13;51.53;95614.59;5002091;28;20457;-57
2022/11/09 07:49:18;;;;;;;38.97;24.97;;;19.90;88.80;;;20.09;50.44;95615.94;5002145;28;20662;-57
2022/11/09 07:51:45;;;;;;;43.00;25.53;;;19.90;86.10;;;19.97;51.12;95611.03;5003191;28;20548;-58
2022/11/09 07:54:13;;;;;;;38.90;25.67;;;19.80;87.10;;;19.85;51.42;95617.81;5005470;28;20493;-55
2022/11/09 07:56:40;;;;;;;45.23;26.23;;;19.70;86.80;;;19.69;51.38;95610.75;5006241;28;20481;-56
2022/11/09 07:59:07;;;;;;;43.53;27.10;;;19.60;85.70;;;19.60;51.41;95611.81;5002353;28;20497;-56
2022/11/09 08:01:36;;;;;;;39.33;26.47;;;19.50;86.80;;;19.74;52.05;95613.69;5005442;28;20993;-56
2022/11/09 08:04:05;;;;;;;44.50;26.07;;;19.60;87.50;;;20.13;51.46;95617.25;5003557;28;20568;-56
2022/11/09 08:06:32;;;;;;;41.60;25.60;;;19.90;87.80;;;20.66;50.87;95618.06;4998129;28;20458;-56
2022/11/09 08:08:59;;;;;;;35.83;23.03;;;20.30;86.50;;;21.19;50.27;95619.78;5005889;28;20469;-57
2022/11/09 08:11:27;;;;;;;36.10;23.90;;;20.80;85.60;;;21.75;49.39;95619.19;5006029;28;20457;-56
2022/11/09 08:13:54;;;;;;;36.73;24.90;;;21.30;84.00;;;22.34;48.49;95618.09;5004919;28;20508;-56
2022/11/09 08:16:21;;;;;;;36.50;24.40;;;21.80;82.00;;;22.88;47.28;95620.09;5005697;28;20579;-58
2022/11/09 08:18:51;;;;;;;38.40;25.30;;;22.40;80.10;;;23.37;45.66;95609.38;5005612;28;21025;-54
2022/11/09 08:21:18;;;;;;;40.03;25.80;;;22.90;77.70;;;23.82;45.20;95612.38;5006361;28;20481;-56
2022/11/09 08:23:46;;;;;;;40.77;24.80;;;23.30;75.50;;;24.27;44.47;95606.44;5005188;28;21033;-59
2022/11/09 08:26:13;;;;;;;41.30;26.30;;;23.80;73.60;;;24.71;43.35;95615.72;5005820;28;20472;-55
2022/11/09 08:28:40;;;;;;;36.30;24.73;;;24.20;71.10;;;25.16;42.97;95609.56;5005522;28;20481;-58
2022/11/09 08:31:08;;;;;;;36.13;25.47;;;24.60;69.90;;;25.57;42.01;95617.28;5005332;28;20480;-59
2022/11/09 08:33:37;;;;;;;44.57;25.03;;;25.10;67.00;;;25.90;41.45;95616.28;4996248;28;21047;-55
2022/11/09 08:36:11;;;;;;;31.80;23.97;;;25.40;65.80;;;26.21;40.57;95608.41;5005263;28;20815;-55
2022/11/09 08:38:38;;;;;;;41.13;25.97;;;25.60;64.00;;;26.31;40.70;95611.44;5005375;28;20511;-57
2022/11/09 08:41:06;;;;;;;38.07;25.70;;;25.90;62.50;;;26.46;39.71;95611.94;5005421;28;20533;-56
2022/11/09 08:43:33;;;;;;;38.10;27.47;;;26.00;61.40;;;26.63;39.73;95609.50;5005410;28;20958;-57
2022/11/09 08:46:01;;;;;;;52.00;25.43;;;26.20;60.40;;;26.81;39.65;95611.41;5005049;28;20454;-58
2022/11/09 08:48:28;;;;;;;40.80;25.33;;;26.30;59.50;;;27.00;38.66;95614.09;5005539;28;20449;-56
2022/11/09 08:50:57;;;;;;;50.20;25.70;;;26.50;58.90;;;27.22;38.25;95617.19;5004645;28;20551;-57
2022/11/09 08:53:27;;;;;;;35.90;24.37;;;26.70;56.90;;;27.42;38.15;95611.59;5002677;28;20936;-56
2022/11/09 08:55:54;;;;;;;50.13;24.90;;;26.90;57.40;;;27.63;38.13;95601.31;5001568;28;20472;-54
2022/11/09 08:58:22;;;;;;;35.33;23.17;;;27.10;56.70;;;27.81;37.87;95603.97;5005164;28;20451;-58
2022/11/09 09:00:49;;;;;;;43.40;25.00;;;27.30;56.20;;;28.01;37.18;95614.53;5004849;28;20997;-57
2022/11/09 09:03:16;;;;;;;40.60;24.97;;;27.50;55.30;;;28.16;36.83;95611.38;5004304;28;20507;-56
2022/11/09 09:05:44;;;;;;;29.97;24.03;;;27.60;55.00;;;28.30;37.01;95617.38;5001055;28;20996;-56
2022/11/09 09:08:14;;;;;;;34.50;24.13;;;27.80;55.00;;;28.44;36.25;95616.13;4998883;28;20468;-57
2022/11/09 09:10:42;;;;;;;35.80;22.97;;;27.90;54.30;;;28.56;36.05;95616.13;5004269;28;20542;-58
2022/11/09 09:13:10;;;;;;;39.93;26.90;;;28.00;53.60;;;28.68;35.84;95615.34;5005270;28;20492;-57
2022/11/09 09:15:37;;;;;;;41.90;26.37;;;28.20;53.40;;;28.81;35.58;95611.56;5005124;28;20476;-57
2022/11/09 09:18:05;;;;;;;38.23;26.37;;;28.30;52.90;;;28.90;35.96;95613.66;5004660;28;20523;-55
2022/11/09 09:20:32;;;;;;;38.17;25.47;;;28.40;52.50;;;28.91;34.85;95612.63;5004253;28;20468;-57
2022/11/09 09:22:59;;;;;;;34.97;24.77;;;28.40;51.60;;;28.73;34.88;95610.03;5004889;28;20449;-59
2022/11/09 09:25:27;;;;;;;32.00;23.87;;;28.30;51.30;;;28.66;35.13;95607.47;4997817;28;21146;-57
2022/11/09 09:27:56;;;;;;;34.63;25.10;;;28.20;51.50;;;28.59;35.73;95604.84;5000789;28;20464;-57
2022/11/09 09:30:23;;;;;;;38.10;26.47;;;28.10;51.50;;;28.39;34.39;95604.34;4999657;28;20486;-58
2022/11/09 09:32:50;;;;;;;41.70;26.10;;;28.00;49.50;;;27.87;35.12;95603.06;5002993;28;20807;-57
2022/11/09 09:35:18;;;;;;;38.47;27.67;;;27.60;50.80;;;27.38;35.89;95593.34;5000422;28;20501;-56
2022/11/09 09:37:45;;;;;;;35.47;25.83;;;27.20;51.50;;;27.01;36.57;95594.16;5000032;28;20903;-56
2022/11/09 09:40:22;;;;;;;49.73;26.93;;;26.80;51.80;;;26.70;36.57;95593.25;5004049;28;20474;-57
2022/11/09 09:42:50;;;;;;;43.43;27.67;;;26.50;52.20;;;26.61;37.29;95589.16;5007640;28;21043;-58
2022/11/09 09:45:20;;;;;;;38.30;28.10;;;26.30;52.70;;;26.69;37.12;95580.78;5004857;28;20988;-57
2022/11/09 09:47:51;;;;;;;41.50;27.07;;;26.40;53.10;;;26.93;36.45;95586.38;5004083;28;20532;-57
2022/11/09 09:50:21;;;;;;;34.73;26.07;;;26.40;52.80;;;27.15;36.54;95579.44;5000401;28;20523;-56
2022/11/09 09:52:55;;;;;;;39.10;26.23;;;26.60;52.70;;;27.37;36.03;95573.59;5004718;28;20449;-56
2022/11/09 09:55:26;;;;;;;41.00;27.23;;;26.90;52.40;;;27.59;34.85;95578.50;5007546;28;20477;-55
2022/11/09 09:57:57;;;;;;;54.53;30.33;;;27.00;50.40;;;27.66;34.92;95577.34;5007571;28;20449;-58
2022/11/09 10:00:26;;;;;;;42.87;27.60;;;27.20;49.60;;;27.65;35.56;95577.59;5007070;28;20488;-58
2022/11/09 10:02:54;;;;;;;44.17;28.10;;;27.20;50.90;;;27.74;35.57;95573.50;5004267;28;20468;-57
2022/11/09 10:05:27;;;;;;;41.03;27.10;;;27.20;50.70;;;27.81;35.34;95566.13;5007354;28;20477;-56
2022/11/09 10:07:59;;;;;;;37.97;26.77;;;27.30;50.80;;;27.91;35.16;95566.38;5000812;28;20445;-56
2022/11/09 10:10:44;;;;;;;36.27;27.30;;;27.40;50.30;;;28.01;34.27;95555.03;5007601;28;20893;-58